createdAt,value
2023-01-20T00:02:26.609Z,1.44
2023-01-20T00:04:53.340Z,1.42
2023-01-20T00:07:20.102Z,1.39
2023-01-20T00:09:46.862Z,1.37
2023-01-20T00:12:13.751Z,1.34
2023-01-20T00:14:40.490Z,1.33
2023-01-20T00:17:07.241Z,1.30
2023-01-20T00:19:33.984Z,1.27
2023-01-20T00:22:00.770Z,1.26
2023-01-20T00:24:27.570Z,1.24
2023-01-20T00:26:54.404Z,1.21
2023-01-20T00:29:21.197Z,1.19
2023-01-20T00:31:47.927Z,1.16
2023-01-20T00:34:14.741Z,1.14
2023-01-20T00:36:41.470Z,1.12
2023-01-20T00:39:08.208Z,1.09
2023-01-20T00:41:35.111Z,1.08
2023-01-20T00:44:01.827Z,1.05
2023-01-20T00:46:28.679Z,1.03
2023-01-20T00:48:55.511Z,1.02
2023-01-20T00:51:22.198Z,0.98
2023-01-20T00:53:48.976Z,0.97
2023-01-20T00:56:15.715Z,0.94
2023-01-20T00:58:42.983Z,0.92
2023-01-20T01:01:09.977Z,0.89
2023-01-20T01:03:36.840Z,0.87
2023-01-20T01:06:10.916Z,0.86
2023-01-20T01:08:37.705Z,0.84
2023-01-20T01:11:04.631Z,0.82
2023-01-20T01:13:31.657Z,0.80
2023-01-20T01:15:58.468Z,0.79
2023-01-20T01:18:25.472Z,0.77
2023-01-20T01:20:52.185Z,0.75
2023-01-20T01:23:18.931Z,0.74
2023-01-20T01:25:45.691Z,0.72
2023-01-20T01:28:12.434Z,0.70
2023-01-20T01:30:39.278Z,0.68
2023-01-20T01:33:06.061Z,0.66
2023-01-20T01:35:32.868Z,0.64
2023-01-20T01:37:59.605Z,0.62
2023-01-20T01:40:26.422Z,0.61
2023-01-20T01:42:53.213Z,0.58
2023-01-20T01:45:24.283Z,0.57
2023-01-20T01:47:53.584Z,0.55
2023-01-20T01:50:21.420Z,0.53
2023-01-20T01:52:49.035Z,0.51
2023-01-20T01:55:16.109Z,0.49
2023-01-20T01:57:42.973Z,0.47
2023-01-20T02:00:10.157Z,0.46
2023-01-20T02:02:40.003Z,0.45
2023-01-20T02:05:06.971Z,0.43
2023-01-20T02:07:33.891Z,0.42
2023-01-20T02:10:00.701Z,0.39
2023-01-20T02:12:27.509Z,0.38
2023-01-20T02:14:54.713Z,0.36
2023-01-20T02:17:27.575Z,0.35
2023-01-20T02:20:03.227Z,0.34
2023-01-20T02:22:29.939Z,0.31
2023-01-20T02:24:59.822Z,0.31
2023-01-20T02:27:29.618Z,0.30
2023-01-20T02:30:05.664Z,0.28
2023-01-20T02:32:52.736Z,0.26
2023-01-20T02:35:24.556Z,0.25
2023-01-20T02:37:51.309Z,0.24
2023-01-20T02:40:36.854Z,0.23
2023-01-20T02:43:08.886Z,0.20
2023-01-20T02:45:35.695Z,0.21
2023-01-20T02:48:22.707Z,0.19
2023-01-20T02:50:55.284Z,0.18
2023-01-20T02:53:22.132Z,0.16
2023-01-20T02:55:49.018Z,0.15
2023-01-20T02:58:38.179Z,0.14
2023-01-20T03:01:10.614Z,0.14
2023-01-20T03:03:38.226Z,0.13
2023-01-20T03:06:07.124Z,0.12
2023-01-20T03:08:33.900Z,0.12
2023-01-20T03:11:07.117Z,0.11
2023-01-20T03:13:45.990Z,0.10
2023-01-20T03:16:14.635Z,0.09
2023-01-20T03:18:41.372Z,0.07
2023-01-20T03:21:08.521Z,0.07
2023-01-20T03:23:36.043Z,0.06
2023-01-20T03:26:07.886Z,0.05
2023-01-20T03:28:34.675Z,0.03
2023-01-20T03:31:01.540Z,0.02
2023-01-20T03:33:28.350Z,0.00
2023-01-20T03:35:55.130Z,-0.01
2023-01-20T03:38:21.915Z,-0.01
2023-01-20T03:40:50.727Z,-0.03
2023-01-20T03:43:20.338Z,-0.04
2023-01-20T03:45:50.216Z,-0.05
2023-01-20T03:48:18.221Z,-0.05
2023-01-20T03:50:55.419Z,-0.07
2023-01-20T03:53:25.278Z,-0.08
2023-01-20T03:55:53.591Z,-0.09
2023-01-20T03:58:25.172Z,-0.10
2023-01-20T04:00:52.008Z,-0.11
2023-01-20T04:03:19.967Z,-0.12
2023-01-20T04:05:46.786Z,-0.12
2023-01-20T04:08:13.971Z,-0.15
2023-01-20T04:10:41.304Z,-0.15
2023-01-20T04:13:08.089Z,-0.16
2023-01-20T04:15:35.730Z,-0.17
2023-01-20T04:18:34.699Z,-0.18
2023-01-20T04:21:02.127Z,-0.19
2023-01-20T04:23:35.062Z,-0.21
2023-01-20T04:26:01.836Z,-0.24
2023-01-20T04:28:28.699Z,-0.25
2023-01-20T04:30:55.523Z,-0.26
2023-01-20T04:33:22.309Z,-0.27
2023-01-20T04:35:49.089Z,-0.28
2023-01-20T04:38:15.893Z,-0.30
2023-01-20T04:40:42.705Z,-0.31
2023-01-20T04:43:10.446Z,-0.32
2023-01-20T04:45:37.214Z,-0.33
2023-01-20T04:48:07.583Z,-0.35
2023-01-20T04:50:37.729Z,-0.35
2023-01-20T04:53:04.507Z,-0.36
2023-01-20T04:55:32.210Z,-0.38
2023-01-20T04:57:58.984Z,-0.38
2023-01-20T05:00:25.676Z,-0.40
2023-01-20T05:02:52.621Z,-0.40
2023-01-20T05:05:19.514Z,-0.41
2023-01-20T05:07:46.221Z,-0.41
2023-01-20T05:10:13.306Z,-0.43
2023-01-20T05:12:41.427Z,-0.43
2023-01-20T05:15:08.537Z,-0.45
2023-01-20T05:17:35.307Z,-0.44
2023-01-20T05:20:02.135Z,-0.45
2023-01-20T05:22:29.631Z,-0.45
2023-01-20T05:24:56.447Z,-0.46
2023-01-20T05:27:23.163Z,-0.45
2023-01-20T05:29:49.955Z,-0.45
2023-01-20T05:32:16.786Z,-0.46
2023-01-20T05:34:43.624Z,-0.45
2023-01-20T05:37:10.421Z,-0.45
2023-01-20T05:39:37.313Z,-0.45
2023-01-20T05:42:04.091Z,-0.45
2023-01-20T05:44:31.061Z,-0.45
2023-01-20T05:46:57.812Z,-0.43
2023-01-20T05:49:24.620Z,-0.44
2023-01-20T05:51:51.437Z,-0.44
2023-01-20T05:54:18.240Z,-0.44
2023-01-20T05:56:45.070Z,-0.44
2023-01-20T05:59:11.799Z,-0.44
2023-01-20T06:01:38.661Z,-0.44
2023-01-20T06:07:00.029Z,-0.43
2023-01-20T06:09:36.359Z,-0.41
2023-01-20T06:12:07.857Z,-0.41
2023-01-20T06:15:08.953Z,-0.41
2023-01-20T06:17:35.700Z,-0.40
2023-01-20T06:20:02.594Z,-0.40
2023-01-20T06:22:30.850Z,-0.38
2023-01-20T06:24:57.572Z,-0.39
2023-01-20T06:27:24.440Z,-0.37
2023-01-20T06:29:51.202Z,-0.37
2023-01-20T06:32:17.876Z,-0.36
2023-01-20T06:34:46.103Z,-0.35
2023-01-20T06:37:12.790Z,-0.36
2023-01-20T06:39:40.534Z,-0.35
2023-01-20T06:42:07.250Z,-0.34
2023-01-20T06:44:36.729Z,-0.34
2023-01-20T06:47:03.445Z,-0.34
2023-01-20T06:49:30.397Z,-0.33
2023-01-20T06:51:57.147Z,-0.33
2023-01-20T06:54:23.996Z,-0.33
2023-01-20T06:56:50.688Z,-0.32
2023-01-20T06:59:17.407Z,-0.33
2023-01-20T07:01:44.198Z,-0.31
2023-01-20T07:04:13.233Z,-0.32
2023-01-20T07:06:40.186Z,-0.32
2023-01-20T07:09:07.506Z,-0.32
2023-01-20T07:11:35.951Z,-0.31
2023-01-20T07:14:04.190Z,-0.32
2023-01-20T07:16:31.098Z,-0.31
2023-01-20T07:18:58.073Z,-0.30
2023-01-20T07:21:26.542Z,-0.30
2023-01-20T07:23:53.519Z,-0.30
2023-01-20T07:26:21.229Z,-0.29
2023-01-20T07:28:47.992Z,-0.27
2023-01-20T07:31:18.856Z,-0.27
2023-01-20T07:33:45.684Z,-0.25
2023-01-20T07:36:12.601Z,-0.23
2023-01-20T07:38:39.333Z,-0.23
2023-01-20T07:41:06.955Z,-0.21
2023-01-20T07:43:33.783Z,-0.21
2023-01-20T07:46:01.141Z,-0.20
2023-01-20T07:48:28.562Z,-0.18
2023-01-20T07:51:02.855Z,-0.17
2023-01-20T07:53:30.000Z,-0.16
2023-01-20T07:55:56.757Z,-0.14
2023-01-20T07:58:23.500Z,-0.12
2023-01-20T08:00:50.233Z,-0.10
2023-01-20T08:03:17.027Z,-0.08
2023-01-20T08:05:43.772Z,-0.05
2023-01-20T08:08:10.540Z,-0.05
2023-01-20T08:10:37.337Z,-0.02
2023-01-20T08:13:04.171Z,-0.01
2023-01-20T08:15:30.910Z,0.01
2023-01-20T08:17:58.708Z,0.03
2023-01-20T08:20:26.728Z,0.07
2023-01-20T08:22:53.711Z,0.08
2023-01-20T08:25:20.467Z,0.11
2023-01-20T08:27:48.151Z,0.13
2023-01-20T08:30:14.999Z,0.15
2023-01-20T08:32:41.724Z,0.18
2023-01-20T08:35:08.661Z,0.20
2023-01-20T08:37:38.585Z,0.23
2023-01-20T08:40:09.833Z,0.25
2023-01-20T08:42:37.102Z,0.28
2023-01-20T08:45:04.630Z,0.31
2023-01-20T08:47:31.422Z,0.35
2023-01-20T08:49:58.104Z,0.38
2023-01-20T08:52:25.051Z,0.40
2023-01-20T08:54:53.099Z,0.43
2023-01-20T08:57:19.865Z,0.46
2023-01-20T08:59:47.459Z,0.48
2023-01-20T09:02:14.334Z,0.52
2023-01-20T09:04:41.129Z,0.55
2023-01-20T09:07:08.345Z,0.59
2023-01-20T09:09:36.561Z,0.64
2023-01-20T09:12:04.170Z,0.69
2023-01-20T09:14:30.859Z,0.72
2023-01-20T09:16:57.599Z,0.76
2023-01-20T09:19:24.343Z,0.80
2023-01-20T09:21:51.194Z,0.85
2023-01-20T09:24:17.902Z,0.90
2023-01-20T09:26:45.504Z,0.95
2023-01-20T09:29:13.185Z,0.97
2023-01-20T09:31:49.009Z,1.01
2023-01-20T09:34:21.804Z,1.03
2023-01-20T09:36:57.417Z,1.06
2023-01-20T09:39:43.030Z,1.08
2023-01-20T09:42:34.927Z,1.11
2023-01-20T09:45:27.816Z,1.14
2023-01-20T09:48:01.136Z,1.18
2023-01-20T09:50:46.854Z,1.22
2023-01-20T09:53:32.868Z,1.24
2023-01-20T09:56:01.253Z,1.28
2023-01-20T09:58:49.029Z,1.31
2023-01-20T10:01:20.025Z,1.34
2023-01-20T10:03:56.303Z,1.37
2023-01-20T10:15:28.010Z,1.57
2023-01-20T10:18:06.829Z,1.62
2023-01-20T10:20:35.832Z,1.65
2023-01-20T10:23:11.152Z,1.65
2023-01-20T10:25:48.191Z,1.67
2023-01-20T10:28:15.947Z,1.69
2023-01-20T10:30:42.746Z,1.72
2023-01-20T10:33:10.703Z,1.73
2023-01-20T10:35:38.398Z,1.74
2023-01-20T10:38:09.126Z,1.76
2023-01-20T10:40:43.624Z,1.79
2023-01-20T10:43:11.647Z,1.80
2023-01-20T10:45:44.757Z,1.82
2023-01-20T10:48:30.556Z,1.83
2023-01-20T10:50:57.476Z,1.85
2023-01-20T10:53:34.186Z,1.86
2023-01-20T10:56:37.002Z,1.87
2023-01-20T10:59:30.133Z,1.90
2023-01-20T11:02:10.895Z,1.92
2023-01-20T11:04:39.065Z,1.95
2023-01-20T11:07:10.390Z,1.94
2023-01-20T11:09:37.971Z,1.96
2023-01-20T11:12:07.001Z,1.97
2023-01-20T11:14:34.039Z,1.98
2023-01-20T11:17:02.719Z,2.00
2023-01-20T11:19:44.391Z,2.00
2023-01-20T11:22:12.375Z,2.02
2023-01-20T11:24:43.126Z,2.03
2023-01-20T11:27:20.640Z,2.04
2023-01-20T11:30:00.553Z,2.04
2023-01-20T11:32:28.825Z,2.04
2023-01-20T11:34:56.072Z,2.05
2023-01-20T11:37:25.759Z,2.06
2023-01-20T11:39:55.799Z,2.06
2023-01-20T11:42:28.816Z,2.06
2023-01-20T11:45:15.248Z,2.06
2023-01-20T11:47:45.834Z,2.07
2023-01-20T11:50:19.926Z,2.08
2023-01-20T11:52:47.483Z,2.09
2023-01-20T11:55:14.249Z,2.08
2023-01-20T11:57:45.028Z,2.08
2023-01-20T12:00:21.083Z,2.09
2023-01-20T12:03:00.621Z,2.08
2023-01-20T12:05:41.979Z,2.08
2023-01-20T12:08:10.540Z,2.09
2023-01-20T12:10:37.339Z,2.08
2023-01-20T12:13:06.047Z,2.09
2023-01-20T12:15:33.456Z,2.08
2023-01-20T12:18:09.693Z,2.08
2023-01-20T12:20:54.911Z,2.08
2023-01-20T12:23:39.348Z,2.09
2023-01-20T12:26:08.902Z,2.08
2023-01-20T12:28:38.814Z,2.08
2023-01-20T12:31:06.648Z,2.08
2023-01-20T12:33:34.230Z,2.08
2023-01-20T12:36:03.857Z,2.08
2023-01-20T12:38:32.512Z,2.08
2023-01-20T12:40:59.459Z,2.08
2023-01-20T12:43:33.748Z,2.08
2023-01-20T12:46:15.966Z,2.09
2023-01-20T12:48:54.845Z,2.09
2023-01-20T12:51:21.618Z,2.07
2023-01-20T12:54:06.772Z,2.09
2023-01-20T12:56:51.975Z,2.08
2023-01-20T12:59:21.794Z,2.08
2023-01-20T13:02:07.243Z,2.09
2023-01-20T13:04:57.186Z,2.09
2023-01-20T13:07:43.267Z,2.09
2023-01-20T13:10:10.014Z,2.10
2023-01-20T13:12:41.754Z,2.09
2023-01-20T13:15:11.504Z,2.09
2023-01-20T13:17:38.253Z,2.09
2023-01-20T13:20:05.278Z,2.09
2023-01-20T13:22:32.129Z,2.09
2023-01-20T13:24:58.952Z,2.09
2023-01-20T13:27:29.558Z,2.08
2023-01-20T13:29:58.811Z,2.09
2023-01-20T13:32:31.415Z,2.09
2023-01-20T13:34:58.245Z,2.10
2023-01-20T13:37:30.383Z,2.09
2023-01-20T13:40:02.153Z,2.09
2023-01-20T13:42:55.269Z,2.10
2023-01-20T13:45:23.203Z,2.10
2023-01-20T13:47:49.998Z,2.09
2023-01-20T13:50:24.167Z,2.10
2023-01-20T13:52:50.968Z,2.09
2023-01-20T13:55:30.637Z,2.09
2023-01-20T13:57:59.713Z,2.10
2023-01-20T14:00:26.507Z,2.09
2023-01-20T14:02:53.309Z,2.09
2023-01-20T14:05:23.623Z,2.09
2023-01-20T14:07:50.381Z,2.10
2023-01-20T14:10:17.628Z,2.09
2023-01-20T14:12:44.632Z,2.09
2023-01-20T14:15:27.555Z,2.11
2023-01-20T14:17:54.982Z,2.10
2023-01-20T14:20:23.805Z,2.10
2023-01-20T14:22:50.541Z,2.09
2023-01-20T14:25:24.411Z,2.10
2023-01-20T14:27:51.265Z,2.10
2023-01-20T14:30:24.952Z,2.09
2023-01-20T14:32:51.856Z,2.09
2023-01-20T14:35:27.842Z,2.09
2023-01-20T14:37:54.650Z,2.09
2023-01-20T14:40:25.462Z,2.09
2023-01-20T14:42:58.797Z,2.09
2023-01-20T14:45:26.112Z,2.09
2023-01-20T14:47:52.883Z,2.09
2023-01-20T14:50:20.035Z,2.08
2023-01-20T14:52:46.899Z,2.08
2023-01-20T14:55:26.824Z,2.09
2023-01-20T14:57:53.529Z,2.08
2023-01-20T15:00:29.170Z,2.09
2023-01-20T15:03:10.213Z,2.08
2023-01-20T15:05:41.827Z,2.08
2023-01-20T15:08:11.559Z,2.08
2023-01-20T15:10:38.588Z,2.09
2023-01-20T15:13:05.365Z,2.08
2023-01-20T15:15:32.427Z,2.08
2023-01-20T15:18:05.957Z,2.08
2023-01-20T15:20:33.392Z,2.08
2023-01-20T15:23:00.343Z,2.08
2023-01-20T15:25:27.584Z,2.07
2023-01-20T15:27:55.090Z,2.07
2023-01-20T15:30:24.386Z,2.08
2023-01-20T15:32:51.393Z,2.08
2023-01-20T15:35:20.489Z,2.07
2023-01-20T15:37:47.311Z,2.07
2023-01-20T15:40:15.258Z,2.08
2023-01-20T15:42:43.533Z,2.07
2023-01-20T15:45:14.918Z,2.08
2023-01-20T15:47:42.016Z,2.08
2023-01-20T15:50:16.262Z,2.08
2023-01-20T15:52:43.325Z,2.08
2023-01-20T15:55:14.176Z,2.07
2023-01-20T15:57:41.437Z,2.08
2023-01-20T16:00:15.039Z,2.06
2023-01-20T16:02:49.354Z,2.08
2023-01-20T16:05:25.508Z,2.07
2023-01-20T16:10:41.879Z,2.08
2023-01-20T16:13:09.533Z,2.08
2023-01-20T16:15:36.280Z,2.08
2023-01-20T16:18:03.017Z,2.08
2023-01-20T16:20:29.943Z,2.09
2023-01-20T16:22:57.527Z,2.08
2023-01-20T16:25:24.908Z,2.07
2023-01-20T16:27:51.719Z,2.08
2023-01-20T16:30:21.967Z,2.10
2023-01-20T16:32:48.856Z,2.08
2023-01-20T16:35:16.104Z,2.09
2023-01-20T16:37:43.188Z,2.09
2023-01-20T16:40:13.642Z,2.09
2023-01-20T16:42:43.247Z,2.10
2023-01-20T16:48:17.076Z,2.09
2023-01-20T16:50:43.978Z,2.10
2023-01-20T16:53:11.559Z,2.10
2023-01-20T16:55:38.374Z,2.09
2023-01-20T16:58:06.988Z,2.09
2023-01-20T17:00:33.796Z,2.10
2023-01-20T17:03:02.518Z,2.10
2023-01-20T17:05:29.325Z,2.10
2023-01-20T17:07:59.105Z,2.10
2023-01-20T17:10:26.531Z,2.10
2023-01-20T17:12:53.409Z,2.08
2023-01-20T17:15:20.345Z,2.10
2023-01-20T17:17:58.400Z,2.10
2023-01-20T17:20:26.378Z,2.09
2023-01-20T17:22:55.565Z,2.09
2023-01-20T17:25:22.346Z,2.09
2023-01-20T17:27:49.194Z,2.10
2023-01-20T17:30:16.583Z,2.10
2023-01-20T17:32:47.529Z,2.10
2023-01-20T17:35:14.895Z,2.11
2023-01-20T17:37:42.632Z,2.10
2023-01-20T17:40:17.254Z,2.10
2023-01-20T17:42:44.723Z,2.11
2023-01-20T17:45:11.759Z,2.10
2023-01-20T17:47:39.957Z,2.10
2023-01-20T17:50:06.938Z,2.10
2023-01-20T17:52:33.719Z,2.11
2023-01-20T17:55:00.767Z,2.11
2023-01-20T17:57:30.777Z,2.11
2023-01-20T17:59:57.546Z,2.11
2023-01-20T18:02:24.488Z,2.10
2023-01-20T18:04:51.325Z,2.10
2023-01-20T18:07:18.136Z,2.10
2023-01-20T18:09:46.187Z,2.11
2023-01-20T18:12:13.526Z,2.10
2023-01-20T18:14:40.345Z,2.10
2023-01-20T18:17:09.322Z,2.10
2023-01-20T18:19:36.237Z,2.10
2023-01-20T18:22:07.062Z,2.11
2023-01-20T18:24:34.418Z,2.10
2023-01-20T18:27:01.320Z,2.11
2023-01-20T18:29:30.311Z,2.10
2023-01-20T18:31:58.275Z,2.10
2023-01-20T18:34:25.423Z,2.10
2023-01-20T18:36:52.235Z,2.10
2023-01-20T18:39:19.037Z,2.10
2023-01-20T18:41:45.905Z,2.10
2023-01-20T18:44:12.738Z,2.10
2023-01-20T18:46:41.603Z,2.11
2023-01-20T18:49:09.777Z,2.10
2023-01-20T18:51:36.684Z,2.11
2023-01-20T18:54:14.825Z,2.10
2023-01-20T18:56:41.601Z,2.10
2023-01-20T18:59:08.528Z,2.10
2023-01-20T19:01:36.181Z,2.10
2023-01-20T19:04:03.382Z,2.11
2023-01-20T19:06:30.959Z,2.10
2023-01-20T19:08:58.444Z,2.10
2023-01-20T19:11:26.229Z,2.10
2023-01-20T19:13:53.705Z,2.09
2023-01-20T19:16:22.204Z,2.09
2023-01-20T19:18:53.064Z,2.11
2023-01-20T19:21:19.919Z,2.10
2023-01-20T19:23:50.288Z,2.09
2023-01-20T19:26:20.205Z,2.10
2023-01-20T19:28:47.536Z,2.09
2023-01-20T19:31:15.274Z,2.10
2023-01-20T19:39:48.612Z,2.09
2023-01-20T21:58:07.618Z,2.07
2023-01-20T22:00:36.855Z,2.07
2023-01-20T22:51:59.876Z,2.08
2023-01-20T23:03:45.482Z,2.09
2023-01-20T23:15:17.131Z,2.07
2023-01-20T23:21:22.960Z,2.08
2023-01-20T23:34:05.397Z,2.08
2023-01-20T23:36:59.559Z,2.08
2023-01-20T23:39:44.622Z,2.08
2023-01-20T23:42:18.749Z,2.08
2023-01-20T23:44:49.204Z,2.07
2023-01-20T23:47:25.416Z,2.07
2023-01-20T23:49:54.918Z,2.08
2023-01-20T23:52:32.759Z,2.09
2023-01-20T23:55:11.497Z,2.08
2023-01-20T23:57:41.226Z,2.08
